createdAt,value
2019-05-05T00:02:01.646Z,4.05
2019-05-05T00:04:51.433Z,4.00
2019-05-05T00:07:31.989Z,4.40
2019-05-05T00:10:15.143Z,4.30
2019-05-05T00:13:01.978Z,4.33
2019-05-05T00:16:00.189Z,3.35
2019-05-05T00:18:31.787Z,3.60
2019-05-05T00:21:15.110Z,3.60
2019-05-05T00:23:46.933Z,3.85
2019-05-05T00:26:19.402Z,4.15
2019-05-05T00:28:50.398Z,4.55
2019-05-05T00:31:19.688Z,3.90
2019-05-05T00:33:50.902Z,4.40
2019-05-05T00:36:19.652Z,4.22
2019-05-05T00:38:51.765Z,4.53
2019-05-05T00:41:25.326Z,4.33
2019-05-05T00:43:55.534Z,3.47
2019-05-05T00:46:59.755Z,3.62
2019-05-05T00:49:45.593Z,2.70
2019-05-05T00:52:02.234Z,3.00
2019-05-05T00:54:48.855Z,2.58
2019-05-05T00:57:24.418Z,2.60
2019-05-05T00:59:54.776Z,2.58
2019-05-05T01:02:49.190Z,2.62
2019-05-05T01:05:48.368Z,2.25
2019-05-05T01:08:31.143Z,1.95
2019-05-05T01:11:06.500Z,2.00
2019-05-05T01:13:41.014Z,2.70
2019-05-05T01:16:19.135Z,2.87
2019-05-05T01:18:56.216Z,2.58
2019-05-05T01:21:28.020Z,2.90
2019-05-05T01:24:05.698Z,3.15
2019-05-05T01:26:35.414Z,3.33
2019-05-05T01:29:06.174Z,3.45
2019-05-05T01:31:34.879Z,3.50
2019-05-05T01:34:18.468Z,3.35
2019-05-05T01:36:49.874Z,3.58
2019-05-05T01:39:30.985Z,3.75
2019-05-05T01:42:01.926Z,3.77
2019-05-05T01:44:30.579Z,3.92
2019-05-05T01:46:59.326Z,4.70
2019-05-05T01:49:28.018Z,4.15
2019-05-05T01:51:56.733Z,3.72
2019-05-05T01:54:25.443Z,4.83
2019-05-05T01:56:55.322Z,4.08
2019-05-05T01:59:24.957Z,4.30
2019-05-05T02:01:55.103Z,5.12
2019-05-05T02:04:25.049Z,3.95
2019-05-05T02:06:54.960Z,4.33
2019-05-05T02:09:24.895Z,3.80
2019-05-05T02:11:54.709Z,3.65
2019-05-05T02:14:24.646Z,4.30
2019-05-05T02:16:54.624Z,3.87
2019-05-05T02:19:24.967Z,4.72
2019-05-05T02:21:54.743Z,4.37
2019-05-05T02:24:25.096Z,4.37
2019-05-05T02:26:54.680Z,4.30
2019-05-05T02:29:35.224Z,4.22
2019-05-05T02:32:22.067Z,4.25
2019-05-05T02:34:56.307Z,4.83
2019-05-05T02:37:25.831Z,5.35
2019-05-05T02:40:00.628Z,5.17
2019-05-05T02:42:26.713Z,4.80
2019-05-05T02:44:56.949Z,4.45
2019-05-05T02:47:48.798Z,4.72
2019-05-05T02:50:18.476Z,4.97
2019-05-05T02:52:48.346Z,5.05
2019-05-05T02:55:18.002Z,4.15
2019-05-05T02:57:47.054Z,4.83
2019-05-05T03:00:40.964Z,5.10
2019-05-05T03:03:10.713Z,5.50
2019-05-05T03:05:39.525Z,5.40
2019-05-05T03:08:08.354Z,5.65
2019-05-05T03:10:37.145Z,5.42
2019-05-05T03:13:06.650Z,6.03
2019-05-05T03:15:47.179Z,6.05
2019-05-05T03:18:15.892Z,5.83
2019-05-05T03:20:44.578Z,5.65
2019-05-05T03:23:13.720Z,5.67
2019-05-05T03:25:44.051Z,6.00
2019-05-05T03:28:13.716Z,6.03
2019-05-05T03:30:45.511Z,5.20
2019-05-05T03:33:15.948Z,5.90
2019-05-05T03:35:43.685Z,6.97
2019-05-05T03:38:14.228Z,5.85
2019-05-05T03:40:45.037Z,6.12
2019-05-05T03:43:34.238Z,5.45
2019-05-05T03:46:08.009Z,5.75
2019-05-05T03:48:36.746Z,6.00
2019-05-05T03:51:18.120Z,5.33
2019-05-05T03:53:35.942Z,6.08
2019-05-05T03:56:04.665Z,6.40
2019-05-05T03:58:34.459Z,6.90
2019-05-05T04:01:34.803Z,5.97
2019-05-05T04:04:20.869Z,6.37
2019-05-05T04:06:50.701Z,6.08
2019-05-05T04:09:19.491Z,6.72
2019-05-05T04:11:48.572Z,6.87
2019-05-05T04:14:18.552Z,5.80
2019-05-05T04:17:18.541Z,7.17
2019-05-05T04:19:49.802Z,6.60
2019-05-05T04:22:18.426Z,6.50
2019-05-05T04:24:47.075Z,5.70
2019-05-05T04:27:15.749Z,6.78
2019-05-05T04:29:44.362Z,6.40
2019-05-05T04:32:14.027Z,7.60
2019-05-05T04:34:43.938Z,6.72
2019-05-05T04:37:14.921Z,7.17
2019-05-05T04:39:44.324Z,6.03
2019-05-05T04:42:14.083Z,6.17
2019-05-05T04:44:44.899Z,5.92
2019-05-05T04:47:19.110Z,6.20
2019-05-05T04:49:53.902Z,5.70
2019-05-05T04:52:23.695Z,7.42
2019-05-05T04:54:55.480Z,6.37
2019-05-05T04:57:24.087Z,6.08
2019-05-05T04:59:53.923Z,6.45
2019-05-05T05:02:34.159Z,6.65
2019-05-05T05:05:11.574Z,7.15
2019-05-05T05:07:40.239Z,7.00
2019-05-05T05:10:09.015Z,7.45
2019-05-05T05:12:37.665Z,8.05
2019-05-05T05:15:06.417Z,8.03
2019-05-05T05:17:44.230Z,7.50
2019-05-05T05:20:14.142Z,6.90
2019-05-05T05:22:43.986Z,7.75
2019-05-05T05:25:14.583Z,8.75
2019-05-05T05:27:44.335Z,9.23
2019-05-05T05:30:13.861Z,8.45
2019-05-05T05:32:44.528Z,8.05
2019-05-05T05:35:14.155Z,8.98
2019-05-05T05:37:44.816Z,7.90
2019-05-05T05:40:19.027Z,8.73
2019-05-05T05:42:47.796Z,9.13
2019-05-05T05:45:38.276Z,9.28
2019-05-05T05:48:28.706Z,10.58
2019-05-05T05:51:04.191Z,9.35
2019-05-05T05:53:34.865Z,8.78
2019-05-05T05:56:04.338Z,9.25
2019-05-05T05:58:33.763Z,9.58
2019-05-05T06:01:04.292Z,8.63
2019-05-05T06:03:33.922Z,8.63
2019-05-05T06:06:04.771Z,8.58
2019-05-05T06:08:34.689Z,8.50
2019-05-05T06:11:04.495Z,7.40
2019-05-05T06:13:33.646Z,7.00
2019-05-05T06:16:04.230Z,8.10
2019-05-05T06:18:34.603Z,7.97
2019-05-05T06:21:04.439Z,7.28
2019-05-05T06:23:34.478Z,8.05
2019-05-05T06:26:06.704Z,6.70
2019-05-05T06:28:34.469Z,7.20
2019-05-05T06:31:04.803Z,6.75
2019-05-05T06:33:37.703Z,6.08
2019-05-05T06:36:14.117Z,5.78
2019-05-05T06:38:47.590Z,5.62
2019-05-05T06:41:39.139Z,5.55
2019-05-05T06:44:26.036Z,5.22
2019-05-05T06:47:05.555Z,5.25
2019-05-05T06:49:38.680Z,5.30
2019-05-05T06:52:09.738Z,5.60
2019-05-05T06:54:40.103Z,5.12
2019-05-05T06:57:13.833Z,5.08
2019-05-05T06:59:43.846Z,5.00
2019-05-05T07:02:14.690Z,5.50
2019-05-05T07:04:51.036Z,3.98
2019-05-05T07:07:23.679Z,4.30
2019-05-05T07:09:54.868Z,3.23
2019-05-05T07:12:28.568Z,3.95
2019-05-05T07:14:58.002Z,3.10
2019-05-05T07:17:29.435Z,3.10
2019-05-05T07:19:59.856Z,3.40
2019-05-05T07:22:34.672Z,3.10
2019-05-05T07:25:42.611Z,3.00
2019-05-05T07:28:07.014Z,2.72
2019-05-05T07:30:40.512Z,2.95
2019-05-05T07:33:12.162Z,2.40
2019-05-05T07:36:06.086Z,2.90
2019-05-05T07:38:41.488Z,2.70
2019-05-05T07:41:14.353Z,2.70
2019-05-05T07:43:49.712Z,2.27
2019-05-05T07:46:39.941Z,2.70
2019-05-05T07:49:13.869Z,1.27
2019-05-05T07:51:45.868Z,1.03
2019-05-05T07:54:18.853Z,0.80
2019-05-05T07:56:53.784Z,0.80
2019-05-05T07:59:28.215Z,0.90
2019-05-05T08:01:58.182Z,0.83
2019-05-05T08:04:34.471Z,0.80
2019-05-05T08:07:30.650Z,0.93
2019-05-05T08:10:04.606Z,1.00
2019-05-05T08:12:34.152Z,0.87
2019-05-05T08:15:04.346Z,0.97
2019-05-05T08:17:49.885Z,0.87
2019-05-05T08:20:23.832Z,1.13
2019-05-05T08:22:53.675Z,0.90
2019-05-05T08:25:41.392Z,1.00
2019-05-05T08:28:24.220Z,1.20
2019-05-05T08:31:17.712Z,1.10
2019-05-05T08:33:46.323Z,2.43
2019-05-05T08:36:15.060Z,3.60
2019-05-05T08:38:44.237Z,4.00
2019-05-05T08:41:13.914Z,3.07
2019-05-05T08:43:44.027Z,4.13
2019-05-05T08:46:14.335Z,3.83
2019-05-05T08:48:44.692Z,3.03
2019-05-05T08:51:14.105Z,2.67
2019-05-05T08:53:48.024Z,2.60
2019-05-05T08:56:14.705Z,1.87
2019-05-05T08:58:43.786Z,3.10
2019-05-05T09:01:14.757Z,3.53
2019-05-05T09:03:44.313Z,3.67
2019-05-05T09:06:13.832Z,3.73
2019-05-05T09:08:44.175Z,3.13
2019-05-05T09:11:14.065Z,3.37
2019-05-05T09:13:44.615Z,2.80
2019-05-05T09:16:14.393Z,2.37
2019-05-05T09:19:03.964Z,3.07
2019-05-05T09:21:34.374Z,2.80
2019-05-05T09:24:19.457Z,3.50
2019-05-05T09:27:10.083Z,2.33
2019-05-05T09:29:41.099Z,2.30
2019-05-05T09:32:09.823Z,2.20
2019-05-05T09:34:38.430Z,1.87
2019-05-05T09:37:07.602Z,2.10
2019-05-05T09:39:36.277Z,1.73
2019-05-05T09:42:04.973Z,2.70
2019-05-05T09:44:34.603Z,3.00
2019-05-05T09:47:04.740Z,3.03
2019-05-05T09:49:33.976Z,2.77
2019-05-05T09:52:04.782Z,2.70
2019-05-05T09:54:34.515Z,2.47
2019-05-05T09:57:04.548Z,2.87
2019-05-05T09:59:34.657Z,2.80
2019-05-05T10:02:04.508Z,2.40
2019-05-05T10:04:34.541Z,3.20
2019-05-05T10:07:04.445Z,2.10
2019-05-05T10:09:34.535Z,2.37
2019-05-05T10:12:04.738Z,1.80
2019-05-05T10:14:34.168Z,2.10
2019-05-05T10:17:04.895Z,2.13
2019-05-05T10:19:33.307Z,0.90
2019-05-05T10:22:03.897Z,1.73
2019-05-05T10:24:57.322Z,1.27
2019-05-05T10:27:25.090Z,1.20
2019-05-05T10:29:54.739Z,1.60
2019-05-05T10:32:24.532Z,1.00
2019-05-05T10:35:04.428Z,1.00
2019-05-05T10:37:34.635Z,1.10
2019-05-05T10:40:04.072Z,1.33
2019-05-05T10:42:50.902Z,1.33
2019-05-05T10:45:20.707Z,1.37
2019-05-05T10:47:50.727Z,1.70
2019-05-05T10:50:19.424Z,1.20
2019-05-05T10:52:48.026Z,1.30
2019-05-05T10:55:17.223Z,1.43
2019-05-05T10:57:45.830Z,1.27
2019-05-05T11:00:17.895Z,1.30
2019-05-05T11:02:46.500Z,2.33
2019-05-05T11:05:15.581Z,1.93
2019-05-05T11:07:44.326Z,1.10
2019-05-05T11:10:14.147Z,1.40
2019-05-05T11:12:44.358Z,1.20
2019-05-05T11:15:14.237Z,1.17
2019-05-05T11:17:43.955Z,1.40
2019-05-05T11:20:14.379Z,1.03
2019-05-05T11:22:43.812Z,1.10
2019-05-05T11:25:13.863Z,0.90
2019-05-05T11:27:43.988Z,1.47
2019-05-05T11:30:18.041Z,1.20
2019-05-05T11:33:04.508Z,1.30
2019-05-05T11:35:54.796Z,1.30
2019-05-05T11:38:24.682Z,1.10
2019-05-05T11:40:54.628Z,1.20
2019-05-05T11:43:24.647Z,1.33
2019-05-05T11:45:54.378Z,1.20
2019-05-05T11:48:24.000Z,1.50
2019-05-05T11:50:54.014Z,1.90
2019-05-05T11:53:24.897Z,1.40
2019-05-05T11:55:55.035Z,1.20
2019-05-05T11:58:24.800Z,1.47
2019-05-05T12:00:54.540Z,1.23
2019-05-05T12:03:23.391Z,1.30
2019-05-05T12:05:52.141Z,2.07
2019-05-05T12:08:20.841Z,1.53
2019-05-05T12:11:00.067Z,1.43
2019-05-05T12:13:28.913Z,1.20
2019-05-05T12:16:04.829Z,1.20
2019-05-05T12:18:34.316Z,1.90
2019-05-05T12:21:05.113Z,1.97
2019-05-05T12:23:34.189Z,1.30
2019-05-05T12:26:30.709Z,1.30
2019-05-05T12:29:18.926Z,1.10
2019-05-05T12:31:49.983Z,1.27
2019-05-05T12:34:18.592Z,1.20
2019-05-05T12:36:47.218Z,1.10
2019-05-05T12:39:15.844Z,1.30
2019-05-05T12:41:44.667Z,1.70
2019-05-05T12:44:20.893Z,1.43
2019-05-05T12:46:57.566Z,1.40
2019-05-05T12:49:26.284Z,1.40
2019-05-05T12:51:54.923Z,1.40
2019-05-05T12:54:24.542Z,2.23
2019-05-05T12:56:53.853Z,1.23
2019-05-05T12:59:25.359Z,1.23
2019-05-05T13:01:54.754Z,0.90
2019-05-05T13:04:24.582Z,1.07
2019-05-05T13:06:53.977Z,1.03
2019-05-05T13:09:24.357Z,1.20
2019-05-05T13:11:54.226Z,1.20
2019-05-05T13:14:22.939Z,3.17
2019-05-05T13:16:53.894Z,2.87
2019-05-05T13:19:43.886Z,1.30
2019-05-05T13:22:30.347Z,1.37
2019-05-05T13:25:09.717Z,2.00
2019-05-05T13:27:40.852Z,0.97
2019-05-05T13:30:09.775Z,1.10
2019-05-05T13:32:38.449Z,1.47
2019-05-05T13:35:07.710Z,1.93
2019-05-05T13:37:36.329Z,1.00
2019-05-05T13:40:06.183Z,1.23
2019-05-05T13:42:34.920Z,1.40
2019-05-05T13:45:14.543Z,0.90
2019-05-05T13:47:43.721Z,2.10
2019-05-05T13:50:26.197Z,1.70
2019-05-05T13:52:54.868Z,1.37
2019-05-05T13:55:24.132Z,1.47
2019-05-05T13:57:54.737Z,1.77
2019-05-05T14:00:25.525Z,0.90
2019-05-05T14:02:54.482Z,1.30
2019-05-05T14:05:24.016Z,1.23
2019-05-05T14:07:53.652Z,1.10
2019-05-05T14:10:23.631Z,1.20
2019-05-05T14:12:52.295Z,1.00
2019-05-05T14:15:23.482Z,0.90
2019-05-05T14:17:54.384Z,1.00
2019-05-05T14:20:23.946Z,1.30
2019-05-05T14:22:54.329Z,1.17
2019-05-05T14:25:46.397Z,1.40
2019-05-05T14:28:18.989Z,1.50
2019-05-05T14:31:14.068Z,1.07
2019-05-05T14:34:14.331Z,1.27
2019-05-05T14:37:05.916Z,1.17
2019-05-05T14:39:36.291Z,1.20
2019-05-05T14:42:09.198Z,1.67
2019-05-05T14:45:34.084Z,1.40
2019-05-05T14:47:44.172Z,1.50
2019-05-05T14:50:19.794Z,1.03
2019-05-05T14:53:08.460Z,1.20
2019-05-05T14:55:45.141Z,2.37
2019-05-05T14:58:20.297Z,1.37
2019-05-05T15:00:53.774Z,1.20
2019-05-05T15:03:24.276Z,1.13
2019-05-05T15:06:17.982Z,1.30
2019-05-05T15:08:58.584Z,1.20
2019-05-05T15:11:50.219Z,1.30
2019-05-05T15:14:20.796Z,1.20
2019-05-05T15:16:54.174Z,1.00
2019-05-05T15:19:25.611Z,1.30
2019-05-05T15:22:05.873Z,1.30
2019-05-05T15:24:34.505Z,1.37
2019-05-05T15:27:03.273Z,1.17
2019-05-05T15:29:34.353Z,1.37
2019-05-05T15:32:04.218Z,1.60
2019-05-05T15:34:34.370Z,1.40
2019-05-05T15:37:03.903Z,1.30
2019-05-05T15:39:33.627Z,1.40
2019-05-05T15:42:04.458Z,1.57
2019-05-05T15:44:34.463Z,1.90
2019-05-05T15:47:03.145Z,1.03
2019-05-05T15:49:31.862Z,1.70
2019-05-05T15:52:00.511Z,1.80
2019-05-05T15:54:29.164Z,1.80
2019-05-05T15:57:05.574Z,1.27
2019-05-05T15:59:28.250Z,0.93
2019-05-05T16:01:56.860Z,1.27
2019-05-05T16:04:25.549Z,1.40
2019-05-05T16:06:54.290Z,1.40
2019-05-05T16:09:22.873Z,1.87
2019-05-05T16:11:51.483Z,1.20
2019-05-05T16:14:20.695Z,1.03
2019-05-05T16:16:56.027Z,1.67
2019-05-05T16:19:31.284Z,4.40
2019-05-05T16:22:03.895Z,1.70
2019-05-05T16:24:36.544Z,1.20
2019-05-05T16:27:18.378Z,1.40
2019-05-05T16:29:35.648Z,1.17
2019-05-05T16:32:18.525Z,1.70
2019-05-05T16:34:34.744Z,1.30
2019-05-05T16:37:03.906Z,1.27
2019-05-05T16:39:33.572Z,1.47
2019-05-05T16:42:02.435Z,1.70
2019-05-05T16:44:33.988Z,1.30
2019-05-05T16:47:04.688Z,1.63
2019-05-05T16:49:37.038Z,1.80
2019-05-05T16:52:14.558Z,1.30
2019-05-05T16:55:06.854Z,2.00
2019-05-05T16:57:39.078Z,1.33
2019-05-05T17:00:12.218Z,1.20
2019-05-05T17:02:44.470Z,1.63
2019-05-05T17:05:14.969Z,1.90
2019-05-05T17:07:46.846Z,1.47
2019-05-05T17:10:16.764Z,1.27
2019-05-05T17:12:49.647Z,1.80
2019-05-05T17:15:37.154Z,1.90
2019-05-05T17:18:32.963Z,1.60
2019-05-05T17:21:17.011Z,1.40
2019-05-05T17:23:48.485Z,2.23
2019-05-05T17:26:26.733Z,1.47
2019-05-05T17:29:06.833Z,2.20
2019-05-05T17:31:39.044Z,1.97
2019-05-05T17:34:10.548Z,2.20
2019-05-05T17:36:46.596Z,1.93
2019-05-05T17:39:20.942Z,2.83
2019-05-05T17:42:07.453Z,2.50
2019-05-05T17:44:58.378Z,2.50
2019-05-05T17:47:37.820Z,2.40
2019-05-05T17:50:19.472Z,2.37
2019-05-05T17:53:11.239Z,1.37
2019-05-05T17:55:44.422Z,1.90
2019-05-05T17:58:15.233Z,1.53
2019-05-05T18:00:51.794Z,2.07
2019-05-05T18:03:23.324Z,1.77
2019-05-05T18:06:18.230Z,1.80
2019-05-05T18:08:56.915Z,1.60
2019-05-05T18:11:45.868Z,1.50
2019-05-05T18:14:19.941Z,1.73
2019-05-05T18:16:50.118Z,2.20
2019-05-05T18:19:19.387Z,1.40
2019-05-05T18:22:02.368Z,1.80
2019-05-05T18:24:33.684Z,1.73
2019-05-05T18:27:05.407Z,1.80
2019-05-05T18:29:36.253Z,1.20
2019-05-05T18:32:13.494Z,1.50
2019-05-05T18:34:43.124Z,1.80
2019-05-05T18:37:14.391Z,3.03
2019-05-05T18:39:45.729Z,3.57
2019-05-05T18:42:21.276Z,2.50
2019-05-05T18:44:57.252Z,2.17
2019-05-05T18:47:28.175Z,2.77
2019-05-05T18:50:01.138Z,2.47
2019-05-05T18:52:31.180Z,2.63
2019-05-05T18:55:05.179Z,2.13
2019-05-05T18:57:38.541Z,2.50
2019-05-05T19:00:14.987Z,1.80
2019-05-05T19:02:50.323Z,2.10
2019-05-05T19:05:41.144Z,2.87
2019-05-05T19:08:21.147Z,2.63
2019-05-05T19:10:58.558Z,2.63
2019-05-05T19:13:31.401Z,3.75
2019-05-05T19:16:00.944Z,3.10
2019-05-05T19:18:33.912Z,2.80
2019-05-05T19:21:20.309Z,3.17
2019-05-05T19:23:51.162Z,2.77
2019-05-05T19:26:24.086Z,3.00
2019-05-05T19:28:54.760Z,3.60
2019-05-05T19:31:37.407Z,3.70
2019-05-05T19:34:18.031Z,3.33
2019-05-05T19:36:48.733Z,3.97
2019-05-05T19:39:21.629Z,4.13
2019-05-05T19:41:54.420Z,3.87
2019-05-05T19:44:26.047Z,4.37
2019-05-05T19:47:13.811Z,3.47
2019-05-05T19:49:47.799Z,3.53
2019-05-05T19:52:23.925Z,4.50
2019-05-05T19:54:57.084Z,5.15
2019-05-05T19:57:30.222Z,4.75
2019-05-05T19:59:59.501Z,4.37
2019-05-05T20:02:34.481Z,4.53
2019-05-05T20:05:04.556Z,4.70
2019-05-05T20:07:36.075Z,3.92
2019-05-05T20:10:05.997Z,3.87
2019-05-05T20:12:46.823Z,3.97
2019-05-05T20:15:25.277Z,3.75
2019-05-05T20:17:54.427Z,3.80
2019-05-05T20:20:27.562Z,4.13
2019-05-05T20:22:58.464Z,3.73
2019-05-05T20:25:27.763Z,4.37
2019-05-05T20:28:07.866Z,4.97
2019-05-05T20:30:45.445Z,4.60
2019-05-05T20:33:28.299Z,4.07
2019-05-05T20:36:03.656Z,4.30
2019-05-05T20:38:36.190Z,3.80
2019-05-05T20:41:11.537Z,4.63
2019-05-05T20:43:44.071Z,4.73
2019-05-05T20:46:16.605Z,5.03
2019-05-05T20:48:47.928Z,5.80
2019-05-05T20:51:20.350Z,4.83
2019-05-05T20:53:53.950Z,5.87
2019-05-05T20:56:23.005Z,6.40
2019-05-05T20:58:54.926Z,5.30
2019-05-05T21:01:26.233Z,5.12
2019-05-05T21:03:58.690Z,5.70
2019-05-05T21:06:31.038Z,5.53
2019-05-05T21:09:01.719Z,5.40
2019-05-05T21:11:32.155Z,5.10
2019-05-05T21:14:04.596Z,4.73
2019-05-05T21:16:40.370Z,5.03
2019-05-05T21:19:13.950Z,5.40
2019-05-05T21:21:45.017Z,5.30
2019-05-05T21:24:23.977Z,4.60
2019-05-05T21:27:25.203Z,4.67
2019-05-05T21:29:56.121Z,5.00
2019-05-05T21:32:25.368Z,4.60
2019-05-05T21:34:54.201Z,3.73
2019-05-05T21:37:24.838Z,4.87
2019-05-05T21:39:55.225Z,4.90
2019-05-05T21:42:25.186Z,4.20
2019-05-05T21:44:58.013Z,4.10
2019-05-05T21:47:29.106Z,5.10
2019-05-05T21:50:03.702Z,4.70
2019-05-05T21:52:40.845Z,4.77
2019-05-05T21:55:43.931Z,5.17
2019-05-05T21:58:35.639Z,5.40
2019-05-05T22:01:14.901Z,5.57
2019-05-05T22:03:46.913Z,4.65
2019-05-05T22:06:15.764Z,5.30
2019-05-05T22:08:46.545Z,5.40
2019-05-05T22:11:17.246Z,4.55
2019-05-05T22:13:47.055Z,4.97
2019-05-05T22:16:27.603Z,4.73
2019-05-05T22:19:01.114Z,5.10
2019-05-05T22:21:35.909Z,4.60
2019-05-05T22:24:20.152Z,4.50
2019-05-05T22:26:48.899Z,5.00
2019-05-05T22:29:17.576Z,4.90
2019-05-05T22:31:46.237Z,4.73
2019-05-05T22:34:14.880Z,4.67
2019-05-05T22:36:44.782Z,5.23
2019-05-05T22:39:16.454Z,5.10
2019-05-05T22:41:44.673Z,5.07
2019-05-05T22:44:14.070Z,4.55
2019-05-05T22:46:43.166Z,5.03
2019-05-05T22:49:11.835Z,5.53
2019-05-05T22:51:40.482Z,5.43
2019-05-05T22:54:09.511Z,5.42
2019-05-05T22:56:38.244Z,5.07
2019-05-05T22:59:06.989Z,4.07
2019-05-05T23:01:35.701Z,5.10
2019-05-05T23:04:43.689Z,5.40
2019-05-05T23:07:28.287Z,5.17
2019-05-05T23:09:56.915Z,4.80
2019-05-05T23:12:25.516Z,4.77
2019-05-05T23:14:54.659Z,5.78
2019-05-05T23:17:34.177Z,6.53
2019-05-05T23:20:21.759Z,5.50
2019-05-05T23:22:59.607Z,5.40
2019-05-05T23:25:33.243Z,5.25
2019-05-05T23:28:03.986Z,5.80
2019-05-05T23:30:41.625Z,6.45
2019-05-05T23:33:02.604Z,5.95
2019-05-05T23:35:31.223Z,5.77
2019-05-05T23:37:59.852Z,5.50
2019-05-05T23:40:28.859Z,4.83
2019-05-05T23:42:57.474Z,5.00
2019-05-05T23:45:26.178Z,5.25
2019-05-05T23:47:54.912Z,5.97
2019-05-05T23:50:23.576Z,5.27
2019-05-05T23:52:54.320Z,5.43
2019-05-05T23:55:23.993Z,5.20
2019-05-05T23:57:54.601Z,5.20
